Time;durP1;ratioP1;P1;durP2;ratioP2;P2;SDS_P1;SDS_P2;PMS_P1;PMS_P2;Temp;Humidity;BMP_temperature;BMP_pressure;BME280_temperature;BME280_humidity;BME280_pressure;Samples;Min_cycle;Max_cycle;Signal;HPM_P1;HPM_P2
2020/12/28 00:00:31;;;;;;;34.53;20.43;;;;;;;0.42;76.09;97061.37;119103;1151;65088;-81
2020/12/28 00:03:08;;;;;;;36.27;23.37;;;;;;;0.50;75.99;97053.94;119002;1150;65121;-81
2020/12/28 00:05:35;;;;;;;39.83;27.63;;;;;;;0.62;76.71;97050.59;119020;1149;65161;-80
2020/12/28 00:08:01;;;;;;;37.33;24.52;;;;;;;0.71;76.32;97036.13;119315;1151;65126;-80
2020/12/28 00:10:29;;;;;;;31.87;20.67;;;;;;;0.77;76.45;97034.91;119274;1150;65594;-80
2020/12/28 00:12:56;;;;;;;28.03;17.63;;;;;;;0.86;76.73;97039.59;119240;1150;65207;-80
2020/12/28 00:15:25;;;;;;;29.53;18.63;;;;;;;0.94;76.75;97036.52;119336;1150;65120;-78
2020/12/28 00:17:56;;;;;;;17.70;12.55;;;;;;;1.06;77.20;97038.42;119286;1149;65117;-79
2020/12/28 00:20:25;;;;;;;18.60;12.77;;;;;;;1.20;77.06;97043.66;119037;1150;65127;-79
2020/12/28 00:22:52;;;;;;;17.47;10.50;;;;;;;1.36;77.62;97042.73;119297;1150;65130;-79
2020/12/28 00:25:22;;;;;;;13.13;8.40;;;;;;;1.49;77.73;97043.66;119270;1151;65087;-80
2020/12/28 00:27:49;;;;;;;7.03;4.10;;;;;;;1.66;77.94;97040.84;119328;1150;65074;-79
2020/12/28 00:30:16;;;;;;;3.05;1.50;;;;;;;2.00;78.53;97037.86;118855;1150;65171;-80
2020/12/28 00:32:43;;;;;;;1.70;1.40;;;;;;;2.32;78.22;97035.80;118670;1151;65107;-80
2020/12/28 00:35:10;;;;;;;3.30;2.95;;;;;;;2.58;78.23;97026.17;118731;1150;65118;-80
2020/12/28 00:37:37;;;;;;;7.67;4.00;;;;;;;2.86;77.90;97030.44;119281;1150;65206;-79
2020/12/28 00:40:06;;;;;;;4.45;3.60;;;;;;;3.07;77.54;97018.45;119302;1150;65223;-79
2020/12/28 00:42:33;;;;;;;2.20;1.93;;;;;;;3.27;77.50;97011.00;119481;1150;65111;-80
2020/12/28 00:45:00;;;;;;;2.13;1.27;;;;;;;3.40;77.23;97016.26;119216;1150;65099;-79
2020/12/28 00:47:26;;;;;;;2.13;1.30;;;;;;;3.50;77.02;97018.14;119051;1151;65085;-79
2020/12/28 00:49:53;;;;;;;1.50;0.87;;;;;;;3.58;76.65;97014.97;119272;1150;65124;-81
2020/12/28 00:52:20;;;;;;;1.00;0.63;;;;;;;3.65;76.62;96999.55;119130;1150;65177;-79
2020/12/28 00:54:46;;;;;;;1.73;0.97;;;;;;;3.71;76.63;97004.38;119004;1151;65219;-79
2020/12/28 00:57:13;;;;;;;1.87;0.80;;;;;;;3.78;76.53;96992.46;118761;1151;65615;-78
2020/12/28 00:59:39;;;;;;;2.83;1.10;;;;;;;3.88;76.50;96995.28;118819;1151;65097;-79
2020/12/28 01:02:06;;;;;;;1.70;1.07;;;;;;;3.95;76.48;96993.90;119049;1151;65197;-79
2020/12/28 01:04:32;;;;;;;3.05;2.20;;;;;;;3.99;76.30;96984.80;119204;1150;65461;-79
2020/12/28 01:06:59;;;;;;;2.00;1.60;;;;;;;4.10;76.20;96984.02;119255;1150;65230;-78
2020/12/28 01:09:25;;;;;;;2.30;1.47;;;;;;;4.16;75.97;96979.16;119083;1150;65114;-80
2020/12/28 01:11:51;;;;;;;4.97;3.57;;;;;;;4.20;76.12;96974.48;119232;1149;65034;-80
2020/12/28 01:14:18;;;;;;;2.27;1.53;;;;;;;4.24;76.00;96961.91;119242;1150;64999;-80
2020/12/28 01:16:44;;;;;;;10.85;8.33;;;;;;;4.27;75.80;96969.61;119244;1150;65149;-79
2020/12/28 01:19:11;;;;;;;13.93;10.30;;;;;;;4.30;75.89;96958.83;119211;1151;65063;-80
2020/12/28 01:21:38;;;;;;;13.80;10.03;;;;;;;4.35;75.65;96959.34;119015;1151;65181;-80
2020/12/28 01:24:04;;;;;;;21.33;14.30;;;;;;;4.38;75.63;96938.00;119332;1150;65156;-82
2020/12/28 01:26:31;;;;;;;10.83;7.80;;;;;;;4.41;75.26;96940.41;118495;1151;65183;-80
2020/12/28 01:28:57;;;;;;;4.50;4.00;;;;;;;4.42;75.30;96935.97;118902;1150;65150;-81
2020/12/28 01:31:24;;;;;;;10.00;5.50;;;;;;;4.42;75.52;96936.80;118571;1151;65276;-80
2020/12/28 01:33:50;;;;;;;7.22;4.75;;;;;;;4.40;75.27;96931.66;118762;1150;65158;-79
2020/12/28 01:36:17;;;;;;;8.47;5.10;;;;;;;4.40;74.84;96926.39;118523;1151;66666;-80
2020/12/28 01:38:43;;;;;;;6.70;4.80;;;;;;;4.41;75.01;96916.67;118817;1150;65124;-80
2020/12/28 01:41:09;;;;;;;5.33;3.47;;;;;;;4.44;74.92;96921.71;119252;1151;65175;-80
2020/12/28 01:43:36;;;;;;;12.67;7.73;;;;;;;4.49;74.41;96919.57;118967;1150;65212;-81
2020/12/28 01:46:03;;;;;;;11.03;6.10;;;;;;;4.52;74.69;96926.41;119263;1149;65214;-80
2020/12/28 01:48:30;;;;;;;14.03;9.13;;;;;;;4.53;74.43;96938.63;119224;1150;65117;-79
2020/12/28 01:50:58;;;;;;;33.30;22.77;;;;;;;4.50;74.28;96915.99;119232;1150;65133;-79
2020/12/28 01:53:25;;;;;;;24.53;17.43;;;;;;;4.46;73.98;96914.53;119061;1151;65094;-78
2020/12/28 01:55:56;;;;;;;12.03;8.30;;;;;;;4.41;73.78;96898.21;119230;1151;65121;-79
2020/12/28 01:58:22;;;;;;;11.37;7.23;;;;;;;4.38;74.06;96904.56;119109;1150;65118;-79
2020/12/28 02:00:49;;;;;;;12.37;8.50;;;;;;;4.37;74.09;96899.39;119105;1150;65633;-79
2020/12/28 02:03:15;;;;;;;11.47;8.27;;;;;;;4.38;74.13;96901.92;119254;1150;65131;-79
2020/12/28 02:05:44;;;;;;;15.90;12.70;;;;;;;4.38;74.25;96903.72;119090;1150;65114;-80
2020/12/28 02:08:10;;;;;;;14.63;9.43;;;;;;;4.35;73.39;96899.52;118920;1151;65133;-80
2020/12/28 02:10:37;;;;;;;13.00;8.97;;;;;;;4.28;73.86;96908.84;119235;1149;65217;-81
2020/12/28 02:13:03;;;;;;;13.00;8.23;;;;;;;4.20;73.54;96908.58;119194;1148;65114;-81
2020/12/28 02:15:30;;;;;;;15.73;8.90;;;;;;;4.11;73.96;96902.20;118859;1150;65249;-81
2020/12/28 02:17:56;;;;;;;13.45;8.00;;;;;;;4.04;74.06;96897.50;118624;1151;65169;-81
2020/12/28 02:20:23;;;;;;;13.18;7.08;;;;;;;3.98;73.94;96882.98;118644;1150;65251;-81
2020/12/28 02:22:50;;;;;;;8.97;4.93;;;;;;;3.98;73.68;96874.21;118677;1151;65124;-81
2020/12/28 02:25:16;;;;;;;8.87;4.63;;;;;;;4.01;73.70;96872.21;118688;1151;65132;-80
2020/12/28 02:27:42;;;;;;;7.27;4.10;;;;;;;4.06;73.38;96870.07;118715;1151;65085;-81
2020/12/28 02:30:09;;;;;;;4.03;2.53;;;;;;;4.09;73.66;96855.83;119299;1150;65223;-80
2020/12/28 02:32:35;;;;;;;1.53;1.43;;;;;;;4.25;73.12;96850.23;119095;1151;65082;-80
2020/12/28 02:35:03;;;;;;;1.57;1.27;;;;;;;4.38;72.93;96835.16;119072;1151;65190;-80
2020/12/28 02:37:30;;;;;;;4.23;1.60;;;;;;;4.44;72.86;96826.77;119387;1150;65118;-81
2020/12/28 02:39:56;;;;;;;2.25;1.65;;;;;;;4.49;72.76;96824.62;119207;1151;65119;-81
2020/12/28 02:42:23;;;;;;;6.90;4.55;;;;;;;4.52;72.74;96810.35;119147;1151;65108;-81
2020/12/28 02:44:49;;;;;;;4.20;3.33;;;;;;;4.50;72.49;96809.63;119317;1150;65115;-81
2020/12/28 02:47:17;;;;;;;3.80;2.73;;;;;;;4.43;72.32;96796.09;119174;1150;65114;-81
2020/12/28 02:49:45;;;;;;;5.10;2.60;;;;;;;4.47;72.29;96797.52;119322;1150;65134;-81
2020/12/28 02:52:13;;;;;;;;;;;;;;;4.49;71.98;96792.13;118877;1150;65200;-79
2020/12/28 02:54:39;;;;;;;4.60;2.60;;;;;;;4.46;72.42;96801.13;118857;1150;65153;-82
2020/12/28 02:57:06;;;;;;;3.75;2.00;;;;;;;4.49;72.45;96815.87;119342;1150;65197;-83
2020/12/28 02:59:32;;;;;;;2.50;1.60;;;;;;;4.54;71.63;96824.27;119128;1150;65060;-80
2020/12/28 03:01:58;;;;;;;3.27;2.17;;;;;;;4.67;71.48;96826.80;119343;1150;65166;-80
2020/12/28 03:04:25;;;;;;;4.53;2.50;;;;;;;4.72;71.47;96820.20;119357;1150;65147;-81
2020/12/28 03:06:51;;;;;;;3.12;2.50;;;;;;;4.71;71.56;96822.95;119149;1150;65190;-80
2020/12/28 03:09:18;;;;;;;3.53;2.37;;;;;;;4.68;71.60;96802.92;118922;1151;65153;-80
2020/12/28 03:11:45;;;;;;;2.80;2.00;;;;;;;4.65;72.01;96815.52;119240;1150;65121;-81
2020/12/28 03:14:12;;;;;;;3.83;2.20;;;;;;;4.59;71.83;96807.13;119118;1150;65120;-81
2020/12/28 03:16:38;;;;;;;3.60;2.40;;;;;;;4.55;71.78;96805.67;119133;1151;65191;-80
2020/12/28 03:19:05;;;;;;;2.50;1.90;;;;;;;4.55;71.69;96812.75;119138;1150;65185;-79
2020/12/28 03:21:31;;;;;;;2.63;1.80;;;;;;;4.55;72.14;96810.11;119287;1150;65211;-80
2020/12/28 03:23:58;;;;;;;2.80;2.13;;;;;;;4.56;72.04;96811.81;119235;1151;65174;-80
2020/12/28 03:26:24;;;;;;;3.83;2.50;;;;;;;4.55;71.96;96797.75;118972;1151;65150;-80
2020/12/28 03:28:50;;;;;;;4.17;2.60;;;;;;;4.54;71.91;96797.89;119229;1150;65129;-82
2020/12/28 03:31:17;;;;;;;3.00;2.70;;;;;;;4.53;71.72;96804.97;118785;1151;65151;-79
2020/12/28 03:33:43;;;;;;;2.97;2.30;;;;;;;4.48;71.46;96793.11;119211;1150;65249;-80
2020/12/28 03:36:10;;;;;;;2.80;2.00;;;;;;;4.51;71.50;96791.05;119283;1150;65117;-80
2020/12/28 03:38:36;;;;;;;2.60;2.37;;;;;;;4.53;71.81;96793.55;119328;1150;65114;-79
2020/12/28 03:41:03;;;;;;;2.87;1.90;;;;;;;4.50;71.87;96789.39;119280;1150;65193;-80
2020/12/28 03:43:29;;;;;;;5.20;3.90;;;;;;;4.43;71.65;96792.63;119097;1151;65194;-80
2020/12/28 03:45:56;;;;;;;45.63;31.57;;;;;;;4.42;71.84;96796.20;119312;1151;65254;-80
2020/12/28 03:48:22;;;;;;;2.60;1.77;;;;;;;4.42;71.81;96783.84;119054;1150;65104;-80
2020/12/28 03:50:49;;;;;;;4.50;3.23;;;;;;;4.44;71.83;96779.30;119278;1150;65098;-80
2020/12/28 03:53:15;;;;;;;202.87;111.00;;;;;;;4.38;72.07;96777.98;119327;1150;65101;-80
2020/12/28 03:55:41;;;;;;;20.15;12.25;;;;;;;4.34;72.02;96773.05;119292;1151;65671;-80
2020/12/28 03:58:08;;;;;;;305.43;142.27;;;;;;;4.27;71.98;96779.78;119301;1150;65201;-80
2020/12/28 04:00:34;;;;;;;178.93;87.60;;;;;;;4.18;71.75;96774.23;119353;1150;65118;-80
2020/12/28 04:03:00;;;;;;;162.67;88.33;;;;;;;4.11;71.89;96765.14;119313;1150;65223;-82
2020/12/28 04:05:27;;;;;;;24.97;14.97;;;;;;;4.03;71.84;96754.34;119295;1150;65121;-80
2020/12/28 04:07:53;;;;;;;7.80;4.70;;;;;;;3.95;71.90;96756.73;119137;1151;65253;-80
2020/12/28 04:10:19;;;;;;;12.33;9.30;;;;;;;3.90;71.97;96756.23;119313;1150;65121;-79
2020/12/28 04:12:46;;;;;;;3.90;2.63;;;;;;;3.85;72.40;96739.94;119017;1150;65111;-80
2020/12/28 04:15:12;;;;;;;3.27;2.57;;;;;;;3.83;72.61;96749.74;118801;1150;65200;-80
2020/12/28 04:17:39;;;;;;;3.17;2.00;;;;;;;3.81;72.14;96738.48;119283;1150;65102;-80
2020/12/28 04:20:05;;;;;;;2.87;1.60;;;;;;;3.80;72.39;96727.11;119094;1150;65187;-81
2020/12/28 04:22:31;;;;;;;1.32;1.20;;;;;;;3.80;72.33;96737.64;119332;1150;65118;-80
2020/12/28 04:24:58;;;;;;;2.30;1.30;;;;;;;3.79;72.10;96733.34;119080;1151;65189;-80
2020/12/28 04:27:24;;;;;;;3.13;1.53;;;;;;;3.78;72.20;96734.28;119306;1150;65123;-80
2020/12/28 04:29:51;;;;;;;2.43;1.50;;;;;;;3.73;72.29;96713.55;119242;1150;65121;-80
2020/12/28 04:32:17;;;;;;;3.25;2.20;;;;;;;3.70;72.55;96715.58;118999;1151;65181;-81
2020/12/28 04:34:44;;;;;;;2.30;1.67;;;;;;;3.64;72.56;96694.98;119057;1150;65175;-80
2020/12/28 04:37:10;;;;;;;2.40;1.30;;;;;;;3.59;72.51;96692.70;119282;1150;65124;-81
2020/12/28 04:39:36;;;;;;;3.33;1.93;;;;;;;3.57;72.58;96688.50;119347;1151;65147;-81
2020/12/28 04:42:03;;;;;;;5.40;3.40;;;;;;;3.57;72.63;96691.13;119238;1150;65115;-81
2020/12/28 04:44:30;;;;;;;7.83;3.13;;;;;;;3.56;72.69;96692.94;119048;1150;65193;-79
2020/12/28 04:46:57;;;;;;;9.20;3.07;;;;;;;3.54;72.88;96686.94;119328;1150;65188;-80
2020/12/28 04:49:24;;;;;;;6.80;3.30;;;;;;;3.55;72.71;96691.23;119081;1151;65209;-79
2020/12/28 04:51:54;;;;;;;2.73;2.20;;;;;;;3.60;72.68;96683.83;119074;1151;65338;-80
2020/12/28 04:54:20;;;;;;;3.83;2.70;;;;;;;3.66;72.97;96686.02;119365;1150;65458;-80
2020/12/28 04:56:47;;;;;;;2.63;2.40;;;;;;;3.66;72.80;96675.48;119291;1151;65580;-80
2020/12/28 04:59:13;;;;;;;3.37;2.33;;;;;;;3.65;72.71;96679.05;119073;1151;65277;-81
2020/12/28 05:01:51;;;;;;;4.17;2.57;;;;;;;3.67;72.98;96677.14;119306;1150;65100;-81
2020/12/28 05:04:17;;;;;;;3.77;2.73;;;;;;;3.66;72.99;96679.88;119332;1150;65158;-80
2020/12/28 05:06:54;;;;;;;3.17;2.33;;;;;;;3.67;72.80;96671.05;119098;1151;65111;-79
2020/12/28 05:09:21;;;;;;;3.40;2.50;;;;;;;3.69;73.24;96662.07;119096;1151;65268;-80
2020/12/28 05:11:58;;;;;;;4.50;2.47;;;;;;;3.64;72.96;96660.75;119278;1150;65529;-81
2020/12/28 05:14:25;;;;;;;3.83;2.60;;;;;;;3.59;73.21;96674.26;119220;1150;65076;-80
2020/12/28 05:16:59;;;;;;;3.57;2.03;;;;;;;3.52;73.26;96665.97;119328;1150;65078;-80
2020/12/28 05:19:27;;;;;;;1.90;1.30;;;;;;;3.46;73.30;96662.98;119136;1151;65104;-81
2020/12/28 05:21:55;;;;;;;3.33;2.27;;;;;;;3.50;73.57;96667.91;119268;1150;65481;-82
2020/12/28 05:24:22;;;;;;;3.63;2.20;;;;;;;3.48;73.47;96679.51;119251;1151;65121;-81
2020/12/28 05:26:49;;;;;;;4.67;2.80;;;;;;;3.41;73.62;96679.12;118993;1151;65146;-81
2020/12/28 05:29:23;;;;;;;4.83;3.33;;;;;;;3.36;73.39;96662.00;119320;1151;65142;-81
2020/12/28 05:31:54;;;;;;;5.17;4.00;;;;;;;3.31;73.51;96651.80;119351;1150;65121;-81
2020/12/28 05:34:24;;;;;;;6.45;4.40;;;;;;;3.25;73.63;96645.21;118911;1150;65319;-80
2020/12/28 05:36:54;;;;;;;7.23;6.30;;;;;;;3.17;73.67;96628.33;118454;1150;65056;-78
2020/12/28 05:39:22;;;;;;;8.30;5.83;;;;;;;3.12;74.05;96622.57;118801;1150;65088;-82
2020/12/28 05:41:56;;;;;;;6.37;3.33;;;;;;;3.12;74.52;96606.78;119259;1151;65130;-78
2020/12/28 05:44:24;;;;;;;1.80;1.57;;;;;;;3.15;74.50;96596.84;119027;1151;65062;-79
2020/12/28 05:47:01;;;;;;;1.77;1.53;;;;;;;3.21;74.54;96600.80;119250;1150;65101;-80
2020/12/28 05:49:39;;;;;;;1.67;1.40;;;;;;;3.26;74.42;96588.97;119245;1150;65128;-80
2020/12/28 05:52:07;;;;;;;2.50;1.80;;;;;;;3.32;74.12;96582.42;119296;1151;65586;-80
2020/12/28 05:54:35;;;;;;;3.87;2.50;;;;;;;3.37;74.11;96589.95;119070;1151;65165;-80
2020/12/28 05:57:03;;;;;;;4.27;2.70;;;;;;;3.39;74.52;96588.88;119352;1150;65111;-80
2020/12/28 05:59:34;;;;;;;3.93;2.73;;;;;;;3.41;73.85;96586.14;119217;1151;65121;-79
2020/12/28 06:02:02;;;;;;;4.57;3.00;;;;;;;3.40;74.10;96595.84;119157;1150;65574;-81
2020/12/28 06:04:29;;;;;;;6.00;3.50;;;;;;;3.41;74.12;96599.30;119358;1151;65105;-81
2020/12/28 06:06:58;;;;;;;4.07;2.93;;;;;;;3.38;74.21;96602.17;119296;1151;65126;-81
2020/12/28 06:09:25;;;;;;;3.57;2.07;;;;;;;3.37;74.23;96593.45;119096;1150;65232;-82
2020/12/28 06:12:08;;;;;;;3.10;2.10;;;;;;;3.36;74.36;96597.02;119117;1150;65130;-81
2020/12/28 06:14:40;;;;;;;3.40;2.10;;;;;;;3.38;74.35;96586.37;119013;1150;65118;-81
2020/12/28 06:17:11;;;;;;;2.30;1.70;;;;;;;3.45;74.71;96580.53;119314;1151;65127;-81
2020/12/28 06:19:40;;;;;;;3.33;1.73;;;;;;;3.54;74.44;96576.34;119105;1150;65169;-80
2020/12/28 06:22:23;;;;;;;2.20;1.70;;;;;;;3.61;74.47;96567.02;119089;1151;65127;-80
2020/12/28 06:24:58;;;;;;;5.30;1.70;;;;;;;3.70;74.42;96561.01;119286;1150;65223;-80
2020/12/28 06:27:27;;;;;;;2.50;1.77;;;;;;;3.75;74.45;96563.30;119052;1151;65187;-80
2020/12/28 06:29:53;;;;;;;2.67;1.80;;;;;;;3.76;74.03;96561.48;119407;1150;65147;-81
2020/12/28 06:32:20;;;;;;;3.45;1.75;;;;;;;3.81;74.07;96577.77;119055;1150;65118;-78
2020/12/28 06:34:46;;;;;;;2.17;1.43;;;;;;;3.83;74.23;96578.50;118706;1151;65131;-78
2020/12/28 06:37:14;;;;;;;2.60;1.93;;;;;;;3.89;74.06;96572.73;119141;1151;65226;-79
2020/12/28 06:39:41;;;;;;;3.03;1.90;;;;;;;3.96;73.72;96580.04;118690;1151;65249;-79
2020/12/28 06:42:09;;;;;;;2.83;1.70;;;;;;;4.11;73.94;96585.91;119079;1151;65121;-80
2020/12/28 06:44:36;;;;;;;4.80;2.70;;;;;;;4.20;73.44;96594.87;119237;1151;65108;-79
2020/12/28 06:47:18;;;;;;;8.75;6.20;;;;;;;4.34;72.93;96597.22;119035;1151;65216;-81
2020/12/28 06:49:44;;;;;;;4.10;2.90;;;;;;;4.45;73.19;96585.84;119212;1151;65124;-81
2020/12/28 06:52:11;;;;;;;2.10;1.77;;;;;;;4.49;72.78;96584.61;119126;1150;65114;-81
2020/12/28 06:54:38;;;;;;;10.50;7.70;;;;;;;4.50;72.55;96585.44;119316;1150;65115;-81
2020/12/28 06:57:05;;;;;;;10.40;8.67;;;;;;;4.47;72.80;96594.44;119346;1150;65105;-83
2020/12/28 06:59:33;;;;;;;3.17;1.70;;;;;;;4.53;71.98;96577.28;119263;1150;65155;-81
2020/12/28 07:02:00;;;;;;;3.30;2.40;;;;;;;4.70;72.62;96581.19;119105;1150;65137;-81
2020/12/28 07:04:31;;;;;;;6.73;5.50;;;;;;;4.74;72.54;96585.23;118654;1151;65219;-78
2020/12/28 07:06:59;;;;;;;3.57;2.80;;;;;;;4.72;72.50;96576.64;119273;1151;65117;-82
2020/12/28 07:09:26;;;;;;;4.63;4.20;;;;;;;4.72;72.14;96566.91;119097;1150;65217;-81
2020/12/28 07:11:52;;;;;;;3.63;3.00;;;;;;;4.75;72.43;96566.66;119322;1150;65085;-82
2020/12/28 07:14:20;;;;;;;4.47;3.33;;;;;;;4.73;72.26;96557.19;118869;1151;65155;-81
2020/12/28 07:16:56;;;;;;;4.80;3.20;;;;;;;4.68;72.08;96552.28;119303;1151;65436;-81
2020/12/28 07:19:23;;;;;;;3.90;2.90;;;;;;;4.67;72.37;96555.91;119062;1151;65188;-81
2020/12/28 07:21:49;;;;;;;5.33;3.17;;;;;;;4.65;72.27;96552.55;119319;1150;65111;-81
2020/12/28 07:24:17;;;;;;;4.03;2.80;;;;;;;4.67;72.15;96531.33;119359;1150;65098;-82
2020/12/28 07:26:44;;;;;;;2.83;1.63;;;;;;;4.74;72.25;96521.92;119377;1150;65277;-80
2020/12/28 07:29:15;;;;;;;2.00;1.70;;;;;;;4.84;72.10;96510.50;119314;1150;65162;-81
2020/12/28 07:31:43;;;;;;;4.05;2.40;;;;;;;4.92;71.86;96499.27;119271;1151;65145;-80
2020/12/28 07:34:27;;;;;;;2.45;1.90;;;;;;;4.99;71.57;96489.05;119300;1150;65113;-81
2020/12/28 07:36:54;;;;;;;2.83;2.10;;;;;;;5.10;71.58;96488.13;119158;1150;65060;-80
2020/12/28 07:39:22;;;;;;;3.90;2.67;;;;;;;5.14;70.72;96479.83;118891;1150;65111;-80
2020/12/28 07:41:49;;;;;;;3.77;2.63;;;;;;;5.28;70.91;96476.83;118726;1150;65258;-81
2020/12/28 07:44:16;;;;;;;3.20;2.15;;;;;;;5.36;70.91;96476.17;119201;1150;65070;-81
2020/12/28 07:46:55;;;;;;;3.43;2.83;;;;;;;5.41;70.50;96467.86;119039;1150;65129;-80
2020/12/28 07:49:26;;;;;;;5.03;2.98;;;;;;;5.46;70.51;96473.58;119211;1151;65115;-79
2020/12/28 07:52:17;;;;;;;7.87;4.97;;;;;;;5.49;70.44;96482.06;119244;1150;65487;-80
2020/12/28 07:54:48;;;;;;;13.75;6.15;;;;;;;5.43;69.62;96492.34;119240;1150;65100;-81
2020/12/28 07:57:24;;;;;;;8.43;5.30;;;;;;;5.39;69.97;96504.13;119256;1150;65223;-80
2020/12/28 08:00:00;;;;;;;13.03;5.77;;;;;;;5.37;69.92;96501.63;119301;1150;65631;-81
2020/12/28 08:02:38;;;;;;;8.07;4.57;;;;;;;5.35;68.08;96500.92;119335;1151;65146;-80
2020/12/28 08:05:05;;;;;;;9.50;5.00;;;;;;;5.48;68.69;96500.70;119166;1151;65152;-80
2020/12/28 08:07:35;;;;;;;8.47;4.87;;;;;;;5.45;69.04;96495.66;118928;1151;65169;-80
2020/12/28 08:10:07;;;;;;;20.83;9.40;;;;;;;5.40;68.61;96495.25;119635;1150;65119;-80
2020/12/28 08:12:37;;;;;;;37.65;14.60;;;;;;;5.34;69.00;96493.12;119379;1151;65114;-80
2020/12/28 08:15:03;;;;;;;19.63;8.83;;;;;;;5.24;68.98;96488.64;119171;1151;65124;-79
2020/12/28 08:17:30;;;;;;;20.30;10.30;;;;;;;5.17;69.15;96484.84;119263;1151;66315;-81
2020/12/28 08:20:13;;;;;;;12.00;6.90;;;;;;;5.17;69.52;96498.05;119307;1151;65129;-81
2020/12/28 08:22:40;;;;;;;11.07;7.03;;;;;;;5.16;69.32;96496.38;119335;1150;65113;-81
2020/12/28 08:25:10;;;;;;;12.13;7.47;;;;;;;5.15;69.29;96488.58;119296;1150;66377;-79
2020/12/28 08:27:37;;;;;;;15.85;8.40;;;;;;;5.11;68.89;96476.59;119327;1151;65114;-79
2020/12/28 08:30:09;;;;;;;15.47;8.53;;;;;;;5.11;69.34;96481.88;119238;1150;65124;-80
2020/12/28 08:32:38;;;;;;;20.87;11.17;;;;;;;5.13;69.28;96485.23;119322;1150;65095;-79
2020/12/28 08:35:05;;;;;;;25.07;12.50;;;;;;;5.14;69.57;96479.00;119039;1151;65099;-79
2020/12/28 08:37:32;;;;;;;16.20;9.90;;;;;;;5.22;69.86;96473.90;119056;1150;65110;-78
2020/12/28 08:39:59;;;;;;;17.03;9.17;;;;;;;5.32;69.87;96480.06;118710;1150;65226;-79
2020/12/28 08:42:32;;;;;;;12.53;8.77;;;;;;;5.43;69.78;96473.85;118586;1151;65662;-83
2020/12/28 08:45:01;;;;;;;17.57;10.40;;;;;;;5.56;69.74;96465.70;118795;1151;65165;-82
2020/12/28 08:47:32;;;;;;;14.83;9.87;;;;;;;5.69;69.34;96464.48;118756;1150;65137;-81
2020/12/28 08:49:58;;;;;;;15.97;8.57;;;;;;;5.83;69.51;96473.01;119101;1150;65094;-80
2020/12/28 08:52:25;;;;;;;15.67;9.27;;;;;;;6.00;69.09;96468.89;119202;1150;65542;-81
2020/12/28 08:54:57;;;;;;;15.93;7.77;;;;;;;6.20;69.09;96452.08;118977;1150;65101;-80
2020/12/28 08:57:30;;;;;;;11.27;6.93;;;;;;;6.46;68.64;96446.25;119127;1151;65243;-79
2020/12/28 09:00:00;;;;;;;9.53;5.80;;;;;;;6.70;68.55;96433.41;119318;1150;65111;-81
2020/12/28 09:02:27;;;;;;;8.37;5.83;;;;;;;6.89;67.79;96437.82;119123;1150;65101;-81
2020/12/28 09:04:54;;;;;;;8.90;5.40;;;;;;;7.03;67.89;96425.97;119124;1150;65284;-81
2020/12/28 09:07:23;;;;;;;7.17;4.80;;;;;;;7.13;67.59;96424.09;119273;1150;65109;-81
2020/12/28 09:09:50;;;;;;;8.67;5.47;;;;;;;7.18;67.17;96424.50;119158;1151;65136;-81
2020/12/28 09:12:19;;;;;;;9.97;6.00;;;;;;;7.17;66.96;96433.43;119126;1151;65216;-81
2020/12/28 09:14:45;;;;;;;9.77;6.27;;;;;;;7.07;66.86;96426.50;119304;1151;65129;-81
2020/12/28 09:17:12;;;;;;;15.90;8.03;;;;;;;6.95;66.73;96431.98;119070;1151;65107;-81
2020/12/28 09:19:38;;;;;;;14.10;8.53;;;;;;;6.82;66.93;96434.09;118758;1151;65338;-80
2020/12/28 09:22:05;;;;;;;13.27;6.73;;;;;;;6.70;67.01;96445.81;118847;1150;65133;-80
2020/12/28 09:24:31;;;;;;;10.30;6.73;;;;;;;6.65;66.91;96435.64;119081;1150;65333;-80
2020/12/28 09:26:58;;;;;;;10.13;7.17;;;;;;;6.60;66.48;96437.88;118999;1151;65108;-81
2020/12/28 09:29:25;;;;;;;18.07;8.13;;;;;;;6.58;66.89;96434.52;118843;1150;65124;-78
2020/12/28 09:31:51;;;;;;;9.67;6.63;;;;;;;6.57;67.23;96432.86;118922;1150;65111;-79
2020/12/28 09:34:18;;;;;;;8.93;5.73;;;;;;;6.59;66.96;96433.56;119277;1150;65120;-79
2020/12/28 09:36:45;;;;;;;7.67;5.37;;;;;;;6.61;67.43;96431.63;119052;1150;65107;-79
2020/12/28 09:39:11;;;;;;;8.47;5.40;;;;;;;6.62;67.15;96417.41;118669;1150;65133;-79
2020/12/28 09:41:38;;;;;;;9.30;5.85;;;;;;;6.63;67.58;96410.29;119008;1150;65091;-79
2020/12/28 09:44:05;;;;;;;8.20;5.33;;;;;;;6.65;67.66;96403.05;118949;1151;65099;-79
2020/12/28 09:46:31;;;;;;;6.40;4.50;;;;;;;6.66;67.41;96402.06;118751;1150;65111;-80
2020/12/28 09:48:58;;;;;;;6.53;4.37;;;;;;;6.67;67.40;96404.58;118860;1150;65097;-80
2020/12/28 09:51:24;;;;;;;4.50;3.90;;;;;;;6.72;67.46;96401.52;119090;1150;65194;-83
2020/12/28 09:53:50;;;;;;;7.23;5.10;;;;;;;6.76;67.52;96402.87;119087;1151;66256;-80
2020/12/28 09:56:17;;;;;;;6.63;3.83;;;;;;;6.77;67.70;96402.75;119327;1150;65271;-80
2020/12/28 09:58:44;;;;;;;5.30;3.70;;;;;;;6.79;67.54;96411.39;119268;1150;65181;-80
2020/12/28 10:01:10;;;;;;;6.37;4.33;;;;;;;6.80;67.49;96396.34;118674;1150;65111;-79
2020/12/28 10:03:37;;;;;;;5.47;4.17;;;;;;;6.82;68.05;96410.27;119001;1151;65656;-80
2020/12/28 10:06:31;;;;;;;4.43;3.90;;;;;;;6.83;67.35;96390.75;119293;1150;65121;-80
2020/12/28 10:08:53;;;;;;;6.07;4.30;;;;;;;6.83;67.47;96381.98;119175;1150;65036;-80
2020/12/28 10:11:19;;;;;;;6.47;4.63;;;;;;;6.83;67.40;96380.16;119000;1151;65554;-80
2020/12/28 10:13:45;;;;;;;7.53;4.83;;;;;;;6.83;67.48;96379.34;119090;1150;65163;-81
2020/12/28 10:16:12;;;;;;;5.43;4.33;;;;;;;6.84;67.24;96388.94;119009;1151;65152;-80
2020/12/28 10:18:39;;;;;;;7.60;4.00;;;;;;;6.88;67.30;96385.86;119321;1150;65268;-80
2020/12/28 10:21:10;;;;;;;4.70;4.07;;;;;;;6.93;67.00;96375.67;119339;1150;65209;-80
2020/12/28 10:23:37;;;;;;;5.77;4.60;;;;;;;7.00;67.36;96379.42;119309;1150;65145;-80
2020/12/28 10:26:06;;;;;;;5.83;4.43;;;;;;;7.07;66.88;96387.61;119293;1151;65149;-80
2020/12/28 10:28:35;;;;;;;8.43;4.57;;;;;;;7.13;66.93;96384.37;119385;1150;65127;-79
2020/12/28 10:31:14;;;;;;;5.80;4.60;;;;;;;7.22;66.36;96386.16;120076;1150;65051;-94
2020/12/28 10:33:43;;;;;;;4.67;3.47;;;;;;;7.32;66.26;96378.17;118974;1150;65121;-90
2020/12/28 10:36:21;;;;;;;3.63;2.47;;;;;;;7.43;66.29;96387.74;118783;1151;65161;-90
2020/12/28 10:38:49;;;;;;;4.63;3.40;;;;;;;7.52;65.86;96378.89;118791;1151;65193;-92
2020/12/28 10:41:16;;;;;;;3.60;2.80;;;;;;;7.59;65.56;96389.75;118871;1151;65103;-90
2020/12/28 10:43:42;;;;;;;3.67;3.27;;;;;;;7.62;65.55;96392.92;120103;1150;65095;-82
2020/12/28 10:46:09;;;;;;;4.33;3.37;;;;;;;7.64;65.77;96395.44;119813;1149;65095;-82
2020/12/28 10:48:36;;;;;;;8.70;4.67;;;;;;;7.62;64.44;96386.80;119485;1149;65249;-82
2020/12/28 10:51:03;;;;;;;7.27;4.50;;;;;;;7.59;65.00;96379.98;119274;1151;65124;-83
2020/12/28 10:53:30;;;;;;;4.40;3.63;;;;;;;7.55;64.98;96373.28;119276;1151;65214;-86
2020/12/28 10:55:56;;;;;;;4.50;3.17;;;;;;;7.49;64.50;96387.14;119376;1151;65091;-87
2020/12/28 10:58:23;;;;;;;3.40;2.67;;;;;;;7.43;64.41;96367.38;119348;1150;65268;-88
2020/12/28 11:00:51;;;;;;;3.63;2.63;;;;;;;7.37;64.41;96361.81;119334;1150;65207;-89
2020/12/28 11:03:18;;;;;;;5.83;3.03;;;;;;;7.35;64.71;96361.16;119179;1151;65223;-85
2020/12/28 11:05:45;;;;;;;5.10;3.50;;;;;;;7.29;64.73;96354.60;119565;1150;65097;-87
2020/12/28 11:08:12;;;;;;;2.87;2.17;;;;;;;7.22;63.78;96343.77;119404;1150;65092;-88
2020/12/28 11:10:40;;;;;;;2.07;1.60;;;;;;;7.18;63.85;96363.58;119070;1151;65178;-86
2020/12/28 11:13:07;;;;;;;2.37;1.57;;;;;;;7.13;63.87;96354.41;119042;1150;65134;-87
2020/12/28 11:15:35;;;;;;;3.00;2.13;;;;;;;7.07;63.63;96352.35;119172;1149;65085;-87
2020/12/28 11:18:01;;;;;;;2.43;1.67;;;;;;;7.02;63.56;96363.38;119509;1150;65137;-86
2020/12/28 11:20:27;;;;;;;3.27;2.03;;;;;;;6.98;63.66;96359.36;119469;1150;65014;-85
2020/12/28 11:22:54;;;;;;;3.30;2.25;;;;;;;6.93;63.41;96357.14;119072;1151;65104;-85
2020/12/28 11:25:21;;;;;;;4.03;2.40;;;;;;;6.91;63.68;96360.91;118723;1150;65139;-85
2020/12/28 11:27:48;;;;;;;5.60;3.50;;;;;;;6.88;63.87;96363.86;120544;1150;63770;-84
2020/12/28 11:30:14;;;;;;;4.10;3.25;;;;;;;6.85;63.59;96356.20;119284;1151;65208;-86
2020/12/28 11:32:42;;;;;;;4.70;3.33;;;;;;;6.84;63.85;96351.88;118993;1151;65207;-85
2020/12/28 11:35:09;;;;;;;5.13;2.40;;;;;;;6.80;63.68;96338.10;119238;1151;65249;-86